Time;durP1;ratioP1;P1;durP2;ratioP2;P2;SDS_P1;SDS_P2;PMS_P1;PMS_P2;Temp;Humidity;BMP_temperature;BMP_pressure;BME280_temperature;BME280_humidity;BME280_pressure;Samples;Min_cycle;Max_cycle;Signal;HPM_P1;HPM_P2
2023/03/09 00:00:51;;;;;;;11.05;4.95;;;;;;;9.64;88.16;98150.03;3983652;29;20038;-69
2023/03/09 00:02:53;;;;;;;9.63;6.40;;;;;;;9.71;87.40;98141.22;3978130;29;20090;-69
2023/03/09 00:04:56;;;;;;;16.02;9.77;;;;;;;9.73;87.45;98135.13;3979771;29;20043;-69
2023/03/09 00:07:00;;;;;;;7.90;5.07;;;;;;;9.75;87.25;98133.38;3975934;29;20042;-69
2023/03/09 00:09:04;;;;;;;9.30;5.40;;;;;;;9.79;86.87;98122.03;3979091;29;20390;-69
2023/03/09 00:11:08;;;;;;;11.77;8.10;;;;;;;9.84;86.65;98116.78;3982861;29;20389;-69
2023/03/09 00:13:10;;;;;;;10.55;6.68;;;;;;;9.90;86.29;98116.63;3979902;29;20100;-69
2023/03/09 00:15:13;;;;;;;17.05;14.65;;;;;;;9.88;85.73;98102.81;3978952;29;20119;-70
2023/03/09 00:17:16;;;;;;;9.90;7.68;;;;;;;9.89;86.04;98106.28;3976228;29;20047;-69
2023/03/09 00:19:26;;;;;;;8.70;5.40;;;;;;;10.00;85.66;98101.69;3978710;29;20054;-70
2023/03/09 00:21:36;;;;;;;12.35;8.93;;;;;;;9.98;85.44;98100.91;3983247;29;20121;-69
2023/03/09 00:23:41;;;;;;;5.57;4.03;;;;;;;9.94;85.80;98099.25;3979212;29;20042;-69
2023/03/09 00:25:43;;;;;;;7.82;2.88;;;;;;;9.86;85.86;98095.97;3979304;29;20483;-69
2023/03/09 00:27:48;;;;;;;10.95;6.88;;;;;;;9.85;86.17;98112.44;3984150;29;20050;-69
2023/03/09 00:29:51;;;;;;;11.30;6.30;;;;;;;9.85;86.12;98107.22;3962306;29;20055;-69
2023/03/09 00:31:54;;;;;;;5.78;2.58;;;;;;;9.82;86.09;98123.72;3992096;29;20038;-69
2023/03/09 00:33:56;;;;;;;5.85;1.90;;;;;;;9.84;86.60;98123.69;3985304;29;20038;-69
2023/03/09 00:36:00;;;;;;;7.30;2.50;;;;;;;9.83;86.35;98111.59;3979203;29;20042;-69
2023/03/09 00:38:04;;;;;;;5.60;2.88;;;;;;;9.83;86.48;98127.16;3981904;29;20060;-69
2023/03/09 00:40:11;;;;;;;11.75;6.25;;;;;;;9.83;86.17;98119.38;3979178;29;20133;-69
2023/03/09 00:42:14;;;;;;;16.02;6.78;;;;;;;9.81;86.04;98119.41;3987855;29;20173;-69
2023/03/09 00:44:17;;;;;;;9.13;5.43;;;;;;;9.81;85.89;98126.34;3971015;29;20055;-69
2023/03/09 00:46:20;;;;;;;9.27;5.43;;;;;;;9.66;86.09;98137.88;3982883;29;20394;-69
2023/03/09 00:48:23;;;;;;;5.53;2.88;;;;;;;9.62;86.21;98147.44;3985383;29;20045;-70
2023/03/09 00:50:26;;;;;;;7.60;3.55;;;;;;;9.56;86.10;98145.00;3966426;29;20074;-70
2023/03/09 00:52:29;;;;;;;4.32;2.55;;;;;;;9.54;86.18;98146.78;3988744;29;20043;-70
2023/03/09 00:54:32;;;;;;;4.43;1.90;;;;;;;9.55;85.60;98151.03;3985396;29;20141;-70
2023/03/09 00:56:36;;;;;;;4.47;1.13;;;;;;;9.54;85.79;98144.16;3969748;29;20086;-70
2023/03/09 00:58:39;;;;;;;1.98;1.10;;;;;;;9.51;86.00;98145.09;3985245;29;20054;-70
2023/03/09 01:00:42;;;;;;;2.13;1.00;;;;;;;9.44;85.05;98153.84;3981614;29;20070;-70
2023/03/09 01:02:45;;;;;;;1.48;0.90;;;;;;;9.39;85.27;98148.75;3979096;29;20057;-69
2023/03/09 01:04:48;;;;;;;1.63;1.17;;;;;;;9.43;85.38;98158.19;3982662;29;20066;-70
2023/03/09 01:06:54;;;;;;;1.20;1.00;;;;;;;9.52;85.24;98161.47;3973946;29;20047;-70
2023/03/09 01:08:56;;;;;;;1.40;1.02;;;;;;;9.52;85.13;98158.91;3983608;29;20061;-70
2023/03/09 01:11:00;;;;;;;3.17;0.90;;;;;;;9.56;84.63;98168.34;3986637;29;20039;-70
2023/03/09 01:13:04;;;;;;;2.08;1.00;;;;;;;9.49;85.19;98161.53;3987466;29;20045;-70
2023/03/09 01:15:08;;;;;;;1.25;0.82;;;;;;;9.44;85.12;98172.00;3989879;29;20125;-70
2023/03/09 01:17:10;;;;;;;3.15;1.30;;;;;;;9.45;85.27;98171.13;3990923;29;20454;-70
2023/03/09 01:19:13;;;;;;;3.58;1.20;;;;;;;9.40;85.23;98172.94;3990680;29;20053;-70
2023/03/09 01:21:16;;;;;;;5.20;1.70;;;;;;;9.45;84.40;98165.94;3991041;29;20049;-70
2023/03/09 01:23:19;;;;;;;5.43;3.05;;;;;;;9.49;84.54;98164.13;3988312;29;20038;-70
2023/03/09 01:25:22;;;;;;;5.93;4.07;;;;;;;9.51;83.88;98157.19;3991564;29;20462;-70
2023/03/09 01:27:25;;;;;;;8.32;4.80;;;;;;;9.54;84.37;98151.94;3989354;29;20132;-70
2023/03/09 01:29:29;;;;;;;7.03;3.25;;;;;;;9.57;83.81;98155.34;3990636;29;20058;-70
2023/03/09 01:31:32;;;;;;;4.13;3.10;;;;;;;9.53;83.95;98153.66;3989761;29;20496;-70
2023/03/09 01:33:35;;;;;;;8.30;3.78;;;;;;;9.55;83.75;98158.81;3990796;29;20558;-71
2023/03/09 01:35:38;;;;;;;6.40;3.30;;;;;;;9.61;83.59;98148.38;3975522;29;20054;-72
2023/03/09 01:37:42;;;;;;;8.20;3.38;;;;;;;9.65;82.85;98154.34;3982729;29;20061;-71
2023/03/09 01:39:44;;;;;;;5.32;2.22;;;;;;;9.70;83.44;98165.50;3973225;29;20093;-71
2023/03/09 01:41:48;;;;;;;2.92;1.38;;;;;;;9.66;83.16;98172.47;3980593;29;20543;-71
2023/03/09 01:43:52;;;;;;;2.90;0.90;;;;;;;9.69;83.39;98175.00;3975598;29;20129;-71
2023/03/09 01:46:41;;;;;;;1.45;0.90;;;;;;;9.73;83.22;98170.63;3983165;29;20038;-70
2023/03/09 01:48:45;;;;;;;2.20;0.80;;;;;;;9.61;83.79;98175.16;3979341;29;20047;-71
2023/03/09 01:50:48;;;;;;;3.72;1.55;;;;;;;9.74;83.42;98175.78;3971738;29;20127;-72
2023/03/09 01:52:54;;;;;;;2.33;0.60;;;;;;;9.73;83.63;98179.25;3981961;29;20042;-71
2023/03/09 01:55:00;;;;;;;2.38;0.80;;;;;;;9.81;83.10;98166.09;3966800;29;20063;-72
2023/03/09 01:57:09;;;;;;;2.25;0.77;;;;;;;9.82;83.52;98167.00;3982469;29;20051;-71
2023/03/09 01:59:13;;;;;;;3.25;0.73;;;;;;;9.74;83.40;98165.41;3984353;29;20458;-71
2023/03/09 02:01:16;;;;;;;3.10;0.88;;;;;;;9.71;83.71;98168.06;3984712;29;20095;-71
2023/03/09 02:03:24;;;;;;;6.15;1.00;;;;;;;9.72;84.04;98166.31;3984240;29;20045;-70
2023/03/09 02:05:35;;;;;;;3.75;0.82;;;;;;;9.64;84.01;98161.28;3977876;29;20107;-71
2023/03/09 02:07:43;;;;;;;2.75;0.98;;;;;;;9.55;84.75;98171.78;3977144;29;20046;-71
2023/03/09 02:09:51;;;;;;;5.38;1.85;;;;;;;9.46;85.18;98180.59;3978693;29;20082;-71
2023/03/09 02:11:57;;;;;;;4.28;2.40;;;;;;;9.38;85.35;98191.13;3963391;29;20062;-71
2023/03/09 02:14:01;;;;;;;9.57;4.05;;;;;;;9.39;86.28;98192.00;3997235;29;20411;-71
2023/03/09 02:16:04;;;;;;;8.88;3.22;;;;;;;9.36;86.12;98192.03;3984575;29;20506;-70
2023/03/09 02:18:08;;;;;;;4.25;2.33;;;;;;;9.37;86.40;98197.19;3980367;29;20050;-70
2023/03/09 02:20:22;;;;;;;3.85;1.83;;;;;;;9.39;86.22;98198.03;3980505;29;20039;-70
2023/03/09 02:22:26;;;;;;;7.53;1.55;;;;;;;9.38;86.31;98203.25;3974731;29;20088;-70
2023/03/09 02:25:00;;;;;;;4.30;1.10;;;;;;;9.39;86.58;98204.97;3986818;29;20129;-70
2023/03/09 02:27:09;;;;;;;;;;;;;;;9.37;86.78;98210.16;3979850;29;20048;-69
2023/03/09 02:29:14;;;;;;;5.80;0.95;;;;;;;9.33;86.31;98228.38;3969917;29;19925;-69
2023/03/09 02:31:18;;;;;;;2.25;0.90;;;;;;;9.31;86.77;98225.81;3978891;29;20578;-70
2023/03/09 02:33:25;;;;;;;2.08;1.10;;;;;;;9.32;86.86;98234.47;3961700;29;20586;-70
2023/03/09 02:35:30;;;;;;;1.83;0.77;;;;;;;9.31;86.82;98236.19;3984884;29;20053;-69
2023/03/09 02:37:35;;;;;;;4.05;1.42;;;;;;;9.30;86.87;98244.88;3979335;29;20516;-69
2023/03/09 02:39:47;;;;;;;2.88;0.90;;;;;;;9.32;86.29;98245.69;3966065;29;20417;-71
2023/03/09 02:41:56;;;;;;;1.02;0.82;;;;;;;9.38;85.93;98266.31;3982609;29;20118;-70
2023/03/09 02:44:02;;;;;;;2.28;0.90;;;;;;;9.39;86.21;98265.44;3965868;29;20047;-70
2023/03/09 02:46:07;;;;;;;0.95;0.70;;;;;;;9.42;86.57;98275.78;3957957;29;20425;-70
2023/03/09 02:48:13;;;;;;;2.22;0.70;;;;;;;9.38;85.53;98276.69;3971256;24;20055;-67
2023/03/09 02:50:17;;;;;;;1.75;0.73;;;;;;;9.43;85.42;98277.50;4001876;29;20065;-67
2023/03/09 02:52:20;;;;;;;2.05;0.82;;;;;;;9.39;85.48;98281.00;3988707;29;20054;-68
2023/03/09 02:54:23;;;;;;;0.60;0.60;;;;;;;9.44;85.16;98289.56;3988156;29;20038;-67
2023/03/09 02:56:26;;;;;;;1.70;0.73;;;;;;;9.43;84.88;98293.06;3987076;29;20047;-67
2023/03/09 02:58:29;;;;;;;1.45;0.65;;;;;;;9.41;84.70;98299.97;3989132;29;20038;-66
2023/03/09 03:00:33;;;;;;;0.55;0.52;;;;;;;9.42;84.64;98312.06;3988613;29;20051;-66
2023/03/09 03:02:36;;;;;;;2.10;0.85;;;;;;;9.39;84.48;98325.09;3973450;29;20108;-68
2023/03/09 03:04:39;;;;;;;1.55;0.75;;;;;;;9.30;84.28;98324.38;3989974;29;20045;-67
2023/03/09 03:06:42;;;;;;;3.75;0.88;;;;;;;9.33;83.95;98329.50;3971810;29;20051;-67
2023/03/09 03:08:46;;;;;;;1.25;0.70;;;;;;;9.37;83.64;98334.63;3988821;29;20548;-67
2023/03/09 03:10:49;;;;;;;5.15;1.15;;;;;;;9.35;83.89;98344.16;3999410;29;20050;-67
2023/03/09 03:12:52;;;;;;;2.17;0.88;;;;;;;9.31;83.82;98339.91;4003489;29;20065;-67
2023/03/09 03:14:54;;;;;;;1.80;0.60;;;;;;;9.25;83.78;98360.75;3991251;29;20066;-66
2023/03/09 03:16:59;;;;;;;3.47;0.95;;;;;;;9.23;83.42;98357.31;3993732;29;20042;-67
2023/03/09 03:19:02;;;;;;;3.15;0.77;;;;;;;9.24;83.48;98369.38;3996578;29;20064;-67
2023/03/09 03:21:09;;;;;;;1.48;0.85;;;;;;;9.32;83.78;98377.09;3984906;29;20042;-68
2023/03/09 03:23:15;;;;;;;1.35;0.90;;;;;;;9.21;83.72;98391.06;3999247;29;20545;-66
2023/03/09 03:25:24;;;;;;;2.53;0.82;;;;;;;9.20;84.07;98389.34;3990420;29;20050;-66
2023/03/09 03:27:31;;;;;;;3.33;1.92;;;;;;;9.27;83.50;98395.28;4008674;29;20053;-66
2023/03/09 03:29:34;;;;;;;2.45;0.93;;;;;;;9.19;83.07;98402.31;3996617;29;20109;-67
2023/03/09 03:31:37;;;;;;;1.33;0.70;;;;;;;9.18;83.08;98395.41;3999971;29;20440;-67
2023/03/09 03:33:41;;;;;;;2.40;0.85;;;;;;;9.22;82.54;98392.75;3996875;29;20049;-67
2023/03/09 03:35:44;;;;;;;1.83;0.95;;;;;;;9.25;82.34;98397.03;3990760;29;20074;-67
2023/03/09 03:37:47;;;;;;;3.78;0.70;;;;;;;9.26;82.51;98409.13;3987906;29;20489;-67
2023/03/09 03:39:52;;;;;;;1.33;0.88;;;;;;;9.28;82.14;98411.72;3987375;29;20066;-67
2023/03/09 03:41:55;;;;;;;1.77;0.90;;;;;;;9.28;81.38;98424.66;3988734;29;20071;-66
2023/03/09 03:43:58;;;;;;;3.08;1.13;;;;;;;9.28;82.00;98441.06;3987993;29;20292;-66
2023/03/09 03:46:01;;;;;;;3.42;1.15;;;;;;;9.26;82.13;98440.25;3972061;29;20074;-66
2023/03/09 03:48:04;;;;;;;1.40;0.98;;;;;;;9.28;81.53;98454.03;4003818;29;20146;-66
2023/03/09 03:50:11;;;;;;;2.85;1.30;;;;;;;9.34;82.09;98458.28;3991341;29;20042;-66
2023/03/09 03:52:23;;;;;;;3.03;1.10;;;;;;;9.29;81.83;98468.72;3988409;29;20046;-66
2023/03/09 03:54:26;;;;;;;1.15;1.10;;;;;;;9.37;80.98;98469.47;3988411;29;20129;-66
2023/03/09 03:56:29;;;;;;;1.90;1.20;;;;;;;9.35;81.14;98468.63;3989950;29;20042;-66
2023/03/09 03:58:34;;;;;;;1.02;0.95;;;;;;;9.38;81.53;98478.97;3982131;29;20567;-67
2023/03/09 04:00:37;;;;;;;1.70;1.23;;;;;;;9.35;81.38;98486.78;3991172;29;20493;-67
2023/03/09 04:02:44;;;;;;;4.30;1.38;;;;;;;9.36;81.50;98490.22;3987688;29;20042;-68
2023/03/09 04:04:55;;;;;;;3.33;1.33;;;;;;;9.40;80.64;98495.38;3989180;29;21013;-69
2023/03/09 04:06:59;;;;;;;1.65;1.30;;;;;;;9.39;80.98;98492.81;3987493;29;20078;-68
2023/03/09 04:09:02;;;;;;;3.78;1.30;;;;;;;9.44;80.57;98503.97;3988073;29;20516;-67
2023/03/09 04:11:06;;;;;;;4.72;1.30;;;;;;;9.43;80.14;98507.44;3973148;29;20526;-67
2023/03/09 04:13:10;;;;;;;2.45;1.25;;;;;;;9.44;80.71;98520.38;3986271;29;20054;-68
2023/03/09 04:15:14;;;;;;;2.28;0.98;;;;;;;9.46;80.54;98514.31;3987902;29;20521;-68
2023/03/09 04:17:17;;;;;;;3.45;1.33;;;;;;;9.45;80.64;98521.25;3985373;29;20133;-69
2023/03/09 04:19:20;;;;;;;3.63;1.27;;;;;;;9.39;80.42;98529.97;3988213;29;20038;-67
2023/03/09 04:21:23;;;;;;;5.43;1.65;;;;;;;9.38;79.92;98536.03;3989084;29;20477;-68
2023/03/09 04:23:27;;;;;;;4.90;1.67;;;;;;;9.49;80.21;98537.63;3987812;29;20050;-67
2023/03/09 04:25:33;;;;;;;2.92;1.33;;;;;;;9.49;79.37;98540.22;3988064;29;20106;-68
2023/03/09 04:27:38;;;;;;;2.08;1.20;;;;;;;9.51;78.48;98547.13;4002582;29;20045;-67
2023/03/09 04:29:47;;;;;;;4.82;1.65;;;;;;;9.63;78.76;98556.47;3989054;29;20184;-67
2023/03/09 04:31:53;;;;;;;4.55;1.75;;;;;;;9.66;77.73;98564.22;3989289;29;20046;-68
2023/03/09 04:33:56;;;;;;;4.82;1.75;;;;;;;9.68;77.64;98556.41;3973230;29;20047;-68
2023/03/09 04:35:59;;;;;;;3.60;1.45;;;;;;;9.66;77.66;98571.16;3992229;29;20493;-67
2023/03/09 04:38:07;;;;;;;2.85;1.42;;;;;;;9.64;78.43;98570.28;3988160;29;20042;-67
2023/03/09 04:40:15;;;;;;;4.07;1.67;;;;;;;9.63;78.09;98582.41;3994665;29;20665;-68
2023/03/09 04:42:18;;;;;;;3.67;1.40;;;;;;;9.59;77.54;98585.91;3987011;29;20065;-68
2023/03/09 04:44:22;;;;;;;4.60;1.65;;;;;;;9.58;77.65;98600.63;3987562;29;20245;-68
2023/03/09 04:46:26;;;;;;;5.82;1.58;;;;;;;9.66;77.82;98590.16;3968382;29;20577;-68
2023/03/09 04:48:33;;;;;;;5.47;1.75;;;;;;;9.61;77.85;98602.34;3990542;29;20053;-67
2023/03/09 04:50:37;;;;;;;5.10;1.60;;;;;;;9.65;78.47;98600.56;3988773;29;20053;-69
2023/03/09 04:52:41;;;;;;;4.70;1.30;;;;;;;9.61;77.70;98597.16;3985934;29;20095;-66
2023/03/09 04:54:44;;;;;;;5.03;2.15;;;;;;;9.65;77.12;98609.22;3971585;29;20043;-66
2023/03/09 04:56:49;;;;;;;3.13;1.40;;;;;;;9.71;76.82;98601.34;3969787;29;20047;-66
2023/03/09 04:58:56;;;;;;;7.05;2.20;;;;;;;9.66;77.24;98615.25;3998229;29;20046;-68
2023/03/09 05:01:01;;;;;;;;;;;;;;;9.61;77.00;98610.97;3986721;29;20167;-68
2023/03/09 05:03:06;;;;;;;6.40;1.65;;;;;;;9.63;76.26;98600.56;3987007;29;19948;-66
2023/03/09 05:05:11;;;;;;;6.53;2.10;;;;;;;9.62;76.92;98604.03;3982908;29;20038;-68
2023/03/09 05:07:14;;;;;;;4.18;2.40;;;;;;;9.62;76.60;98601.44;3969838;29;20137;-66
2023/03/09 05:09:17;;;;;;;8.82;3.00;;;;;;;9.64;76.32;98612.69;3981460;29;20501;-67
2023/03/09 05:11:21;;;;;;;4.20;1.63;;;;;;;9.62;74.91;98609.22;3987868;29;20042;-68
2023/03/09 05:13:26;;;;;;;12.93;2.45;;;;;;;9.60;75.80;98613.59;4003361;29;20094;-67
2023/03/09 05:15:29;;;;;;;;;;;;;;;9.61;75.16;98628.28;3975299;29;20061;-67
2023/03/09 05:17:33;;;;;;;7.60;2.50;;;;;;;9.58;75.12;98633.50;3986607;29;20043;-67
2023/03/09 05:19:37;;;;;;;11.68;2.97;;;;;;;9.58;74.77;98638.72;3986880;29;20103;-69
2023/03/09 05:21:40;;;;;;;9.90;2.25;;;;;;;9.56;74.26;98635.25;3974933;29;20057;-68
2023/03/09 05:23:50;;;;;;;8.07;2.20;;;;;;;9.64;74.65;98643.81;3992216;29;20038;-68
2023/03/09 05:25:58;;;;;;;11.55;3.30;;;;;;;9.67;74.03;98648.97;3989810;29;20474;-67
2023/03/09 05:28:02;;;;;;;12.18;3.10;;;;;;;9.63;73.89;98649.88;3990222;29;20517;-70
2023/03/09 05:30:10;;;;;;;9.27;2.22;;;;;;;9.60;74.29;98648.16;3994226;29;20114;-68
2023/03/09 05:32:15;;;;;;;9.27;2.50;;;;;;;9.66;74.52;98652.44;3998256;29;20053;-70
2023/03/09 05:34:18;;;;;;;10.90;2.80;;;;;;;9.65;73.95;98650.72;3998260;29;20102;-68
2023/03/09 05:36:23;;;;;;;11.90;2.70;;;;;;;9.67;73.21;98654.16;4004616;29;20134;-69
2023/03/09 05:38:28;;;;;;;8.98;2.03;;;;;;;9.70;73.11;98658.47;3991905;29;20047;-71
2023/03/09 05:40:32;;;;;;;10.88;2.45;;;;;;;9.72;72.76;98649.75;4017229;29;20083;-69
2023/03/09 05:42:39;;;;;;;16.92;3.15;;;;;;;9.72;72.79;98657.53;4013741;29;20417;-70
2023/03/09 05:44:41;;;;;;;11.35;2.80;;;;;;;9.73;72.84;98669.66;4002632;29;20045;-69
2023/03/09 05:46:46;;;;;;;18.15;3.72;;;;;;;9.72;73.09;98680.91;3990176;29;20054;-69
2023/03/09 05:48:48;;;;;;;13.38;2.00;;;;;;;9.78;72.42;98678.25;3988882;29;20038;-68
2023/03/09 05:50:51;;;;;;;11.80;2.42;;;;;;;9.82;73.76;98680.81;3995081;29;20046;-69
2023/03/09 05:52:54;;;;;;;11.43;2.70;;;;;;;9.78;73.10;98680.84;4001262;29;20095;-68
2023/03/09 05:54:57;;;;;;;7.85;2.20;;;;;;;9.78;72.70;98687.75;3992304;29;20066;-68
2023/03/09 05:57:00;;;;;;;13.57;2.63;;;;;;;9.78;72.53;98696.41;3988486;29;20542;-70
2023/03/09 05:59:03;;;;;;;8.32;2.05;;;;;;;9.71;73.17;98697.38;3976431;29;20058;-69
2023/03/09 06:01:17;;;;;;;9.80;1.90;;;;;;;9.84;72.33;98697.22;3990838;29;20042;-68
2023/03/09 06:03:22;;;;;;;7.47;2.00;;;;;;;9.83;73.07;98695.47;3997853;29;20046;-69
2023/03/09 06:05:29;;;;;;;10.82;2.38;;;;;;;9.91;73.19;98709.25;3997535;29;20046;-68
2023/03/09 06:07:32;;;;;;;8.60;1.88;;;;;;;9.81;73.32;98705.88;4000337;29;20054;-69
2023/03/09 06:09:36;;;;;;;;;;;;;;;9.75;73.24;98712.03;4005590;29;20054;-69
2023/03/09 06:11:42;;;;;;;7.50;1.98;;;;;;;9.74;73.81;98718.09;3987810;29;20019;-69
2023/03/09 06:13:45;;;;;;;10.18;1.83;;;;;;;9.77;73.75;98722.38;3976032;29;20165;-68
2023/03/09 06:15:49;;;;;;;10.43;2.70;;;;;;;9.68;73.69;98717.28;4003094;29;20065;-69
2023/03/09 06:17:53;;;;;;;10.38;2.78;;;;;;;9.70;73.92;98731.97;4005675;29;20050;-69
2023/03/09 06:20:01;;;;;;;9.40;2.03;;;;;;;9.68;74.26;98725.06;4018679;29;20574;-69
2023/03/09 06:22:08;;;;;;;8.45;2.08;;;;;;;9.69;75.04;98719.84;3973575;29;20589;-68
2023/03/09 06:24:11;;;;;;;5.90;2.08;;;;;;;9.75;74.09;98730.19;3998446;29;20053;-68
2023/03/09 06:26:16;;;;;;;12.25;2.75;;;;;;;9.74;74.22;98733.66;3989218;29;20046;-69
2023/03/09 06:28:26;;;;;;;12.00;3.28;;;;;;;9.82;74.31;98740.50;3991074;29;20137;-69
2023/03/09 06:30:29;;;;;;;9.93;2.05;;;;;;;9.77;74.28;98746.59;3990073;29;20053;-69
2023/03/09 06:32:33;;;;;;;5.37;1.50;;;;;;;9.78;74.69;98743.13;3990253;29;20046;-69
2023/03/09 06:34:36;;;;;;;12.43;1.95;;;;;;;9.71;74.66;98744.06;3986839;29;20296;-69
2023/03/09 06:36:44;;;;;;;6.47;2.00;;;;;;;9.69;74.88;98743.19;3996801;29;20505;-68
2023/03/09 06:38:47;;;;;;;;;;;;;;;9.70;75.50;98746.69;3984946;29;20386;-68
2023/03/09 06:40:55;;;;;;;7.22;2.40;;;;;;;9.73;75.17;98759.63;3987380;29;19932;-68
2023/03/09 06:43:00;;;;;;;7.20;1.98;;;;;;;9.76;74.94;98762.19;3997276;29;20129;-69
2023/03/09 06:45:04;;;;;;;10.63;3.35;;;;;;;9.77;74.82;98749.19;3991514;29;20674;-68
2023/03/09 06:47:07;;;;;;;8.25;2.53;;;;;;;9.77;75.49;98766.50;3989813;29;20129;-69
2023/03/09 06:49:10;;;;;;;7.43;2.25;;;;;;;9.85;74.90;98766.41;3989021;29;20043;-69
2023/03/09 06:51:14;;;;;;;14.40;2.53;;;;;;;9.82;74.98;98769.06;3973091;29;20466;-68
2023/03/09 06:53:18;;;;;;;8.95;2.25;;;;;;;9.79;75.64;98772.53;4003833;29;20398;-68
2023/03/09 06:55:26;;;;;;;11.43;2.30;;;;;;;9.67;75.83;98789.06;3989937;29;20050;-69
2023/03/09 06:57:33;;;;;;;11.75;2.65;;;;;;;9.69;76.33;98778.69;3991860;29;20489;-70
2023/03/09 06:59:37;;;;;;;14.02;2.25;;;;;;;9.60;76.65;98787.41;3986309;29;20038;-69
2023/03/09 07:01:40;;;;;;;12.30;2.33;;;;;;;9.70;76.69;98795.97;3987660;29;20038;-71
2023/03/09 07:03:43;;;;;;;14.15;2.55;;;;;;;9.74;76.63;98806.31;3973417;29;20050;-69
2023/03/09 07:05:46;;;;;;;10.57;3.20;;;;;;;9.74;76.68;98810.66;3974099;29;20089;-71
2023/03/09 07:07:49;;;;;;;10.63;2.63;;;;;;;9.66;77.49;98813.28;3989215;29;20046;-69
2023/03/09 07:09:53;;;;;;;15.82;3.65;;;;;;;9.65;77.02;98815.91;3977159;29;20085;-70
2023/03/09 07:11:56;;;;;;;13.65;2.90;;;;;;;9.69;77.16;98818.44;3989778;29;20049;-69
2023/03/09 07:13:59;;;;;;;16.38;3.45;;;;;;;9.72;76.80;98818.41;3985425;29;20104;-69
2023/03/09 07:16:03;;;;;;;13.60;3.75;;;;;;;9.75;77.45;98818.44;3983478;29;20042;-70
2023/03/09 07:18:08;;;;;;;15.38;4.22;;;;;;;9.76;77.17;98825.31;3985319;29;20125;-71
2023/03/09 07:20:12;;;;;;;16.60;3.58;;;;;;;9.73;77.00;98819.31;3985241;29;20070;-70
2023/03/09 07:22:15;;;;;;;14.27;2.75;;;;;;;9.73;77.01;98833.13;3985185;29;20045;-71
2023/03/09 07:24:17;;;;;;;16.83;3.97;;;;;;;9.77;76.76;98834.81;3982140;29;20095;-70
2023/03/09 07:26:22;;;;;;;11.32;2.47;;;;;;;9.77;76.95;98831.38;3982019;29;20035;-70
2023/03/09 07:28:24;;;;;;;12.88;3.30;;;;;;;9.81;77.19;98837.41;3982849;29;20125;-71
2023/03/09 07:30:28;;;;;;;13.15;3.47;;;;;;;9.84;76.41;98852.94;3980720;29;20047;-72
2023/03/09 07:32:31;;;;;;;13.38;3.08;;;;;;;9.85;76.50;98849.47;3980995;29;20047;-70
2023/03/09 07:34:34;;;;;;;12.45;2.95;;;;;;;9.92;76.85;98851.16;3984650;29;20099;-70
2023/03/09 07:36:37;;;;;;;9.40;3.42;;;;;;;10.05;76.50;98852.75;3978579;29;20057;-70
2023/03/09 07:38:40;;;;;;;11.45;3.72;;;;;;;10.02;76.47;98863.16;3982586;29;20086;-70
2023/03/09 07:40:43;;;;;;;12.43;2.83;;;;;;;10.06;76.29;98870.06;3982864;29;20096;-70
2023/03/09 07:42:52;;;;;;;11.75;3.55;;;;;;;10.08;76.15;98868.28;3982856;29;20112;-71
2023/03/09 07:45:09;;;;;;;13.85;3.40;;;;;;;10.09;76.89;98875.22;3980998;29;20042;-70
2023/03/09 07:47:12;;;;;;;7.32;2.65;;;;;;;10.08;76.31;98878.69;3983113;29;20095;-71
2023/03/09 07:49:15;;;;;;;12.00;2.58;;;;;;;10.13;76.33;98884.69;3982821;29;20098;-69
2023/03/09 07:51:18;;;;;;;8.02;2.97;;;;;;;10.14;77.01;98886.41;3986753;29;20056;-70
2023/03/09 07:53:21;;;;;;;8.73;3.15;;;;;;;10.13;76.59;98891.59;3989015;29;20065;-69
2023/03/09 07:55:24;;;;;;;9.68;3.15;;;;;;;10.02;76.98;98902.09;3974032;29;20099;-70
2023/03/09 07:57:31;;;;;;;11.85;3.45;;;;;;;10.01;78.44;98904.72;3989697;29;20125;-71
2023/03/09 07:59:35;;;;;;;12.05;3.47;;;;;;;9.99;78.20;98899.53;3990136;29;20042;-70
2023/03/09 08:01:38;;;;;;;7.10;2.60;;;;;;;10.02;77.74;98904.69;3997417;29;20047;-70
2023/03/09 08:03:41;;;;;;;11.43;2.75;;;;;;;9.99;78.39;98904.72;3994750;29;20098;-70
2023/03/09 08:05:44;;;;;;;15.07;3.00;;;;;;;10.13;78.74;98892.50;3990161;29;20046;-70
2023/03/09 08:07:47;;;;;;;8.95;2.65;;;;;;;10.30;78.36;98887.13;3990351;29;20066;-69
2023/03/09 08:09:50;;;;;;;9.15;2.08;;;;;;;10.32;77.55;98900.09;3989790;29;20048;-70
2023/03/09 08:11:54;;;;;;;9.15;2.20;;;;;;;10.39;77.23;98904.38;3988538;29;20063;-70
2023/03/09 08:13:56;;;;;;;8.57;2.38;;;;;;;10.29;77.75;98902.72;3993142;29;20106;-70
2023/03/09 08:16:02;;;;;;;6.45;2.60;;;;;;;10.30;77.57;98910.50;3989082;29;20509;-70
2023/03/09 08:18:06;;;;;;;6.30;2.17;;;;;;;10.29;77.57;98910.50;3991689;29;20513;-70
2023/03/09 08:20:11;;;;;;;11.77;3.05;;;;;;;10.24;77.45;98925.28;3992456;29;20053;-70
2023/03/09 08:22:13;;;;;;;;;;;;;;;10.09;78.13;98926.25;3990204;29;20493;-70
2023/03/09 08:24:17;;;;;;;7.35;2.67;;;;;;;10.13;77.50;98920.16;3987302;29;19933;-70
2023/03/09 08:26:20;;;;;;;7.05;2.38;;;;;;;10.28;77.74;98929.59;3982661;29;20076;-70
2023/03/09 08:28:28;;;;;;;7.00;2.33;;;;;;;10.24;77.51;98931.34;3987114;29;20042;-71
2023/03/09 08:30:31;;;;;;;9.57;2.70;;;;;;;10.19;77.26;98934.84;3984425;29;20042;-70
2023/03/09 08:32:35;;;;;;;7.93;2.53;;;;;;;10.20;77.24;98933.97;3987565;29;20047;-71
2023/03/09 08:34:38;;;;;;;11.93;2.33;;;;;;;10.23;77.00;98942.59;3983345;29;20077;-71
2023/03/09 08:36:41;;;;;;;14.27;3.50;;;;;;;10.27;76.81;98940.84;3985656;29;20045;-70
2023/03/09 08:38:45;;;;;;;5.47;1.88;;;;;;;10.26;76.84;98944.31;3982894;29;20110;-70
2023/03/09 08:40:48;;;;;;;9.37;2.07;;;;;;;10.29;77.30;98944.28;3988628;29;20045;-70
2023/03/09 08:42:51;;;;;;;9.88;1.75;;;;;;;10.34;77.00;98952.06;3985861;29;20299;-70
2023/03/09 08:44:54;;;;;;;4.80;1.50;;;;;;;10.32;77.17;98957.22;3986816;29;20272;-70
2023/03/09 08:46:57;;;;;;;9.57;1.85;;;;;;;10.36;76.40;98953.75;3985191;29;20456;-72
2023/03/09 08:49:01;;;;;;;10.25;2.05;;;;;;;10.31;76.15;98968.50;3997516;24;20050;-71
2023/03/09 08:51:06;;;;;;;9.07;1.65;;;;;;;10.34;76.66;98973.72;3983121;29;20057;-72
2023/03/09 08:53:09;;;;;;;4.75;1.30;;;;;;;10.40;76.89;98978.84;3986940;29;20069;-72
2023/03/09 08:55:13;;;;;;;8.05;1.92;;;;;;;10.43;76.95;98973.63;3959230;29;20039;-71
2023/03/09 08:57:16;;;;;;;9.15;2.53;;;;;;;10.50;76.15;98976.16;3974648;29;20129;-72
2023/03/09 08:59:18;;;;;;;11.48;2.55;;;;;;;10.55;76.18;98977.84;3976165;29;20445;-71
2023/03/09 09:01:21;;;;;;;15.05;3.40;;;;;;;10.54;75.88;98986.53;3976080;29;20047;-72
2023/03/09 09:03:24;;;;;;;17.30;3.03;;;;;;;10.54;75.14;98980.44;3975099;29;20042;-71
2023/03/09 09:05:29;;;;;;;12.30;2.67;;;;;;;10.54;75.15;98983.03;3975468;29;20460;-71
2023/03/09 09:07:32;;;;;;;9.60;2.50;;;;;;;10.52;75.44;98988.25;3958963;29;20047;-71
2023/03/09 09:09:35;;;;;;;14.50;2.78;;;;;;;10.55;74.67;98992.56;3975159;29;20139;-72
2023/03/09 09:11:38;;;;;;;13.77;3.10;;;;;;;10.55;74.93;98993.41;3974376;29;20051;-71
2023/03/09 09:13:41;;;;;;;13.20;2.63;;;;;;;10.57;75.24;98993.41;3967411;29;20050;-72
2023/03/09 09:15:44;;;;;;;9.30;2.17;;;;;;;10.59;74.77;98999.47;3967455;29;20054;-72
2023/03/09 09:17:47;;;;;;;11.85;3.53;;;;;;;10.63;73.56;99002.03;3971874;29;20076;-71
2023/03/09 09:19:51;;;;;;;11.93;2.97;;;;;;;10.61;73.81;99001.16;3972698;29;20035;-72
2023/03/09 09:21:56;;;;;;;12.27;2.83;;;;;;;10.70;74.10;99001.94;3969020;29;20051;-72
2023/03/09 09:23:58;;;;;;;10.73;3.33;;;;;;;10.71;73.87;99004.53;3993082;29;20042;-73
2023/03/09 09:26:02;;;;;;;12.40;2.75;;;;;;;10.76;74.19;99007.09;3968910;29;20047;-73
2023/03/09 09:28:05;;;;;;;18.00;3.88;;;;;;;10.81;73.04;99010.50;3970782;29;20533;-73
2023/03/09 09:30:09;;;;;;;16.27;3.97;;;;;;;10.96;72.80;99012.94;3969299;29;20501;-73
2023/03/09 09:32:12;;;;;;;17.65;3.40;;;;;;;10.97;72.29;99009.47;3968681;29;20066;-73
2023/03/09 09:34:17;;;;;;;15.32;5.45;;;;;;;11.03;73.16;99016.34;3968711;29;20513;-73
2023/03/09 09:36:20;;;;;;;16.75;3.88;;;;;;;11.11;72.36;99024.06;3969163;29;20421;-73
2023/03/09 09:38:25;;;;;;;11.10;2.95;;;;;;;11.05;72.48;99029.31;3967971;29;20039;-73
2023/03/09 09:40:28;;;;;;;13.95;3.47;;;;;;;11.02;72.04;99021.56;3970467;29;20134;-74
2023/03/09 09:42:35;;;;;;;19.90;5.03;;;;;;;11.09;71.79;99031.03;3967924;29;20039;-73
2023/03/09 09:44:41;;;;;;;16.67;3.85;;;;;;;11.04;72.07;99038.00;3967478;29;20059;-73
2023/03/09 09:46:46;;;;;;;13.35;3.28;;;;;;;11.04;72.32;99041.47;3984253;29;20145;-73
2023/03/09 09:48:50;;;;;;;15.50;3.38;;;;;;;11.04;72.15;99044.06;3981434;29;20070;-74
2023/03/09 09:51:10;;;;;;;18.25;4.25;;;;;;;11.00;71.61;99052.78;3984546;29;20050;-73